Time;durP1;ratioP1;P1;durP2;ratioP2;P2;SDS_P1;SDS_P2;PMS_P1;PMS_P2;Temp;Humidity;BMP_temperature;BMP_pressure;BME280_temperature;BME280_humidity;BME280_pressure;Samples;Min_cycle;Max_cycle;Signal;HPM_P1;HPM_P2
2021/06/23 00:02:48;;;;;;;38.17;7.70;;;;;;;21.94;100.00;94628.47;10534383;28;20032;-73
2021/06/23 00:07:50;;;;;;;30.70;6.70;;;;;;;21.78;100.00;94623.75;10536109;28;20300;-73
2021/06/23 00:12:50;;;;;;;33.90;6.43;;;;;;;21.71;100.00;94639.16;10533595;28;20067;-73
2021/06/23 00:17:51;;;;;;;45.75;7.53;;;;;;;21.70;100.00;94652.03;10533535;28;20107;-73
2021/06/23 00:22:52;;;;;;;42.42;8.23;;;;;;;21.62;100.00;94670.16;10532929;28;20020;-73
2021/06/23 00:27:52;;;;;;;25.60;7.13;;;;;;;21.39;100.00;94658.91;10532745;28;20415;-73
2021/06/23 00:32:54;;;;;;;32.05;7.03;;;;;;;21.33;100.00;94663.00;10532000;28;20067;-73
2021/06/23 00:37:55;;;;;;;36.88;7.45;;;;;;;21.31;100.00;94660.63;10532444;28;20132;-73
2021/06/23 00:42:56;;;;;;;38.30;7.33;;;;;;;21.23;100.00;94653.34;10530740;28;20367;-73
2021/06/23 00:47:57;;;;;;;31.63;7.50;;;;;;;21.12;100.00;94646.75;10532397;28;20440;-73
2021/06/23 00:52:57;;;;;;;34.58;7.55;;;;;;;21.05;100.00;94647.31;10529703;28;20071;-73
2021/06/23 00:57:58;;;;;;;29.30;6.60;;;;;;;20.94;100.00;94644.25;10528938;28;20114;-73
2021/06/23 01:03:00;;;;;;;40.40;8.05;;;;;;;20.90;100.00;94639.81;10529991;28;20364;-73
2021/06/23 01:08:02;;;;;;;42.88;7.00;;;;;;;20.79;100.00;94643.00;10531475;28;20031;-73
2021/06/23 01:13:30;;;;;;;33.58;8.32;;;;;;;20.78;100.00;94635.94;10529737;28;20028;-73
2021/06/23 01:18:34;;;;;;;34.03;7.85;;;;;;;20.72;100.00;94618.19;10530060;28;20139;-73
2021/06/23 01:23:35;;;;;;;38.92;6.78;;;;;;;20.69;100.00;94631.72;10529429;28;20461;-73
2021/06/23 01:28:35;;;;;;;43.28;7.13;;;;;;;20.78;100.00;94624.22;10529325;28;20034;-73
2021/06/23 01:33:36;;;;;;;29.47;7.43;;;;;;;20.82;100.00;94614.22;10530305;28;20120;-73
2021/06/23 01:38:37;;;;;;;20.50;5.97;;;;;;;20.81;100.00;94621.59;10530613;28;20350;-73
2021/06/23 01:43:37;;;;;;;32.70;7.88;;;;;;;20.72;100.00;94626.38;10530640;28;20028;-73
2021/06/23 01:48:37;;;;;;;42.85;8.30;;;;;;;20.61;100.00;94631.47;10529815;28;20040;-73
2021/06/23 01:53:39;;;;;;;37.77;7.67;;;;;;;20.48;100.00;94636.13;10529787;28;20073;-73
2021/06/23 01:58:42;;;;;;;37.00;8.70;;;;;;;20.43;100.00;94639.06;10529949;28;20051;-73
2021/06/23 02:04:05;;;;;;;28.35;7.68;;;;;;;20.47;100.00;94645.44;10528933;28;20032;-73
2021/06/23 02:09:29;;;;;;;40.78;7.28;;;;;;;20.48;100.00;94649.75;10528731;28;20031;-73
2021/06/23 02:14:37;;;;;;;23.50;6.72;;;;;;;20.46;100.00;94660.22;10529101;28;20039;-73
2021/06/23 02:19:41;;;;;;;;;;;;;;;20.43;100.00;94660.09;10530131;28;20419;-73
2021/06/23 02:24:43;;;;;;;37.20;8.38;;;;;;;20.26;100.00;94652.88;10528716;28;19915;-73
2021/06/23 02:29:45;;;;;;;40.50;8.20;;;;;;;20.05;100.00;94661.09;10528549;28;20028;-73
2021/06/23 02:34:52;;;;;;;36.63;8.00;;;;;;;19.95;100.00;94656.88;10527734;28;20181;-73
2021/06/23 02:39:54;;;;;;;34.75;7.18;;;;;;;19.82;100.00;94669.66;10540877;28;20027;-73
2021/06/23 02:44:54;;;;;;;34.22;7.75;;;;;;;19.85;100.00;94668.97;10527152;28;20020;-73
2021/06/23 02:49:55;;;;;;;40.22;8.68;;;;;;;19.88;100.00;94671.03;10527040;28;20491;-73
2021/06/23 02:54:56;;;;;;;43.40;7.82;;;;;;;19.77;100.00;94681.53;10527692;28;20160;-73
2021/06/23 02:59:58;;;;;;;31.25;8.80;;;;;;;19.70;100.00;94688.66;10526232;28;20162;-73
2021/06/23 03:04:58;;;;;;;44.42;9.25;;;;;;;19.81;100.00;94689.88;10527515;28;20070;-73
2021/06/23 03:10:25;;;;;;;42.20;12.47;;;;;;;19.72;100.00;94697.31;10526519;28;20024;-73
2021/06/23 03:15:25;;;;;;;38.22;11.07;;;;;;;19.63;100.00;94706.34;10524227;28;20097;-73
2021/06/23 03:20:26;;;;;;;30.85;7.70;;;;;;;19.71;100.00;94717.53;10527375;28;20020;-73
2021/06/23 03:25:26;;;;;;;38.70;8.70;;;;;;;19.76;100.00;94718.13;10535867;28;20020;-73
2021/06/23 03:30:28;;;;;;;30.65;9.40;;;;;;;19.83;100.00;94717.63;10535453;28;20032;-73
2021/06/23 03:35:29;;;;;;;31.80;10.35;;;;;;;19.86;100.00;94730.59;10535003;28;20044;-73
2021/06/23 03:40:29;;;;;;;31.52;9.10;;;;;;;19.92;100.00;94733.91;10535448;28;20024;-73
2021/06/23 03:45:30;;;;;;;44.78;7.55;;;;;;;20.02;100.00;94738.97;10534180;28;20877;-73
2021/06/23 03:50:32;;;;;;;33.65;8.35;;;;;;;20.13;100.00;94731.16;10535098;28;20028;-73
2021/06/23 03:55:32;;;;;;;45.22;9.80;;;;;;;20.20;100.00;94744.28;10534860;28;20380;-73
2021/06/23 04:00:33;;;;;;;31.80;8.80;;;;;;;20.40;100.00;94751.66;10534584;28;20031;-73
2021/06/23 04:05:33;;;;;;;36.67;7.20;;;;;;;20.55;100.00;94750.22;10534140;28;20020;-73
2021/06/23 04:10:33;;;;;;;35.27;8.60;;;;;;;20.66;100.00;94753.31;10534045;28;20266;-73
2021/06/23 04:15:34;;;;;;;25.00;6.65;;;;;;;20.85;100.00;94747.38;10533706;28;20024;-73
2021/06/23 04:20:34;;;;;;;33.83;7.37;;;;;;;21.17;100.00;94756.63;10533653;28;20135;-73
2021/06/23 04:25:35;;;;;;;37.45;8.68;;;;;;;21.67;100.00;94762.13;10533597;28;20772;-73
2021/06/23 04:30:35;;;;;;;38.13;8.80;;;;;;;22.13;100.00;94760.00;10533365;28;20398;-73
2021/06/23 04:35:35;;;;;;;42.47;8.03;;;;;;;22.65;100.00;94763.03;10530573;28;20693;-73
2021/06/23 04:40:36;;;;;;;34.75;8.20;;;;;;;22.88;100.00;94757.75;10532785;28;20379;-73
2021/06/23 04:45:36;;;;;;;42.83;8.80;;;;;;;23.20;100.00;94774.28;10531780;28;20383;-73
2021/06/23 04:50:37;;;;;;;35.03;7.63;;;;;;;23.16;100.00;94768.72;10532330;28;20020;-74
2021/06/23 04:55:37;;;;;;;43.93;8.33;;;;;;;23.71;100.00;94779.81;10531752;28;20290;-73
2021/06/23 05:00:38;;;;;;;40.63;8.52;;;;;;;24.42;100.00;94781.78;10531744;28;20274;-74
2021/06/23 05:05:39;;;;;;;49.83;9.57;;;;;;;25.10;100.00;94776.03;10530956;28;20085;-73
2021/06/23 05:10:40;;;;;;;32.78;7.32;;;;;;;25.72;100.00;94778.66;10530237;28;20067;-74
2021/06/23 05:15:40;;;;;;;31.52;7.03;;;;;;;26.19;100.00;94779.34;10530318;28;20143;-74
2021/06/23 05:20:41;;;;;;;33.70;8.07;;;;;;;26.85;100.00;94779.00;10531578;28;20024;-74
2021/06/23 05:25:41;;;;;;;38.10;8.02;;;;;;;27.36;100.00;94778.38;10529779;28;20020;-74
2021/06/23 05:30:42;;;;;;;35.97;9.03;;;;;;;27.77;100.00;94781.09;10528311;28;20522;-74
2021/06/23 05:35:42;;;;;;;37.50;8.57;;;;;;;28.47;100.00;94783.91;10528580;28;20044;-74
2021/06/23 05:40:42;;;;;;;39.03;8.03;;;;;;;29.10;100.00;94783.75;10528868;28;20767;-74
2021/06/23 05:45:43;;;;;;;30.17;7.28;;;;;;;29.74;92.37;94782.25;10529362;28;20024;-74
2021/06/23 05:50:45;;;;;;;42.10;7.63;;;;;;;30.14;86.41;94783.06;10528880;28;20020;-74
2021/06/23 05:55:45;;;;;;;37.35;5.57;;;;;;;29.81;87.27;94787.78;10528591;28;20058;-74
2021/06/23 06:00:45;;;;;;;33.67;7.28;;;;;;;29.59;91.43;94786.22;10529381;28;20107;-74
2021/06/23 06:05:47;;;;;;;29.73;7.33;;;;;;;29.64;90.24;94794.94;10529852;28;20459;-74
2021/06/23 06:10:47;;;;;;;44.47;7.68;;;;;;;30.33;84.61;94792.09;10529144;28;20531;-74
2021/06/23 06:15:47;;;;;;;35.45;6.63;;;;;;;30.95;79.34;94790.72;10529073;28;20111;-74
2021/06/23 06:20:48;;;;;;;33.40;8.13;;;;;;;32.03;76.41;94783.66;10529484;28;20453;-74
2021/06/23 06:25:48;;;;;;;37.93;6.53;;;;;;;31.82;74.26;94791.00;10529647;28;20110;-74
2021/06/23 06:30:49;;;;;;;27.63;6.50;;;;;;;32.84;67.83;94794.34;10529354;28;20035;-74
2021/06/23 06:35:49;;;;;;;39.63;6.77;;;;;;;33.30;61.52;94794.97;10529653;28;20221;-74
2021/06/23 06:40:49;;;;;;;45.00;7.80;;;;;;;33.73;61.48;94801.91;10529440;28;20441;-74
2021/06/23 06:45:51;;;;;;;38.30;7.27;;;;;;;33.29;59.62;94809.31;10529837;28;20101;-74
2021/06/23 06:50:52;;;;;;;44.58;7.47;;;;;;;34.13;61.17;94810.41;10529189;28;20095;-74
2021/06/23 06:55:53;;;;;;;34.72;6.60;;;;;;;34.75;57.22;94807.31;10530107;28;20406;-74
2021/06/23 07:00:53;;;;;;;42.92;7.38;;;;;;;34.84;54.46;94803.97;10537976;28;20070;-74
2021/06/23 07:05:54;;;;;;;40.77;9.10;;;;;;;35.75;51.54;94807.19;10537815;28;20026;-74
2021/06/23 07:10:54;;;;;;;37.67;8.88;;;;;;;36.22;48.49;94811.66;10537829;28;20028;-74
2021/06/23 07:15:55;;;;;;;41.57;8.37;;;;;;;36.61;46.99;94800.66;10537034;28;20047;-74
2021/06/23 07:20:55;;;;;;;50.20;10.50;;;;;;;36.49;46.94;94810.56;10537127;28;20024;-74
2021/06/23 07:25:55;;;;;;;46.13;9.67;;;;;;;36.93;46.40;94802.59;10537292;28;20148;-74
2021/06/23 07:30:56;;;;;;;36.87;8.63;;;;;;;37.22;44.82;94803.78;10536841;28;20385;-74
2021/06/23 07:41:16;;;;;;;40.90;9.23;;;;;;;37.72;46.14;94807.84;10494817;28;20080;-74
2021/06/23 07:46:17;;;;;;;37.30;8.63;;;;;;;38.81;41.75;94793.84;10494740;28;20123;-74
2021/06/23 07:51:27;;;;;;;40.05;8.73;;;;;;;39.22;41.65;94794.72;10494312;28;20028;-74
2021/06/23 07:56:36;;;;;;;38.72;8.68;;;;;;;39.96;39.10;94802.72;10496372;28;20029;-74
2021/06/23 08:17:14;;;;;;;31.17;7.30;;;;;;;41.83;36.99;94802.94;10493399;28;20028;-74
2021/06/23 08:22:15;;;;;;;24.23;6.17;;;;;;;42.18;35.29;94801.66;10493143;28;20029;-74
2021/06/23 08:27:15;;;;;;;29.00;6.50;;;;;;;43.05;31.47;94798.06;10492542;28;20028;-74
2021/06/23 08:32:16;;;;;;;32.40;5.17;;;;;;;43.62;30.96;94807.53;10492423;28;20369;-74
2021/06/23 08:37:16;;;;;;;26.30;6.10;;;;;;;43.87;31.73;94806.13;10492236;28;20700;-74
2021/06/23 08:42:20;;;;;;;39.97;6.40;;;;;;;43.89;29.29;94805.66;10492391;28;20089;-72
2021/06/23 08:47:23;;;;;;;38.33;6.43;;;;;;;43.88;30.72;94799.22;10491820;28;20107;-72
2021/06/23 08:52:24;;;;;;;29.58;4.90;;;;;;;44.31;29.25;94802.41;10491483;28;20075;-74
2021/06/23 08:57:24;;;;;;;42.92;5.05;;;;;;;44.71;28.63;94803.69;10490522;28;20088;-74
2021/06/23 09:02:26;;;;;;;41.20;5.80;;;;;;;43.30;28.80;94802.34;10490843;28;20083;-74
2021/06/23 09:07:43;;;;;;;36.17;5.18;;;;;;;43.82;26.23;94813.25;10491119;28;20036;-72
2021/06/23 09:13:03;;;;;;;30.25;5.47;;;;;;;43.97;27.66;94801.13;10490569;28;20032;-72
2021/06/23 09:18:11;;;;;;;38.13;5.38;;;;;;;44.38;27.31;94818.97;10505696;28;20059;-72
2021/06/23 09:23:12;;;;;;;30.23;4.55;;;;;;;42.97;27.12;94805.34;10489890;28;20454;-72
2021/06/23 09:28:19;;;;;;;37.42;5.00;;;;;;;43.28;28.92;94804.13;10489539;28;20387;-72
2021/06/23 09:33:21;;;;;;;29.25;4.90;;;;;;;44.95;26.98;94808.34;10489628;28;20428;-73
2021/06/23 09:38:47;;;;;;;22.27;3.83;;;;;;;44.81;25.77;94795.81;10489546;28;20075;-73
2021/06/23 09:43:53;;;;;;;25.75;5.15;;;;;;;45.01;25.39;94791.38;10490166;28;20093;-73
2021/06/23 09:49:07;;;;;;;28.42;4.95;;;;;;;46.20;26.08;94787.44;10503298;28;20043;-73
2021/06/23 09:54:09;;;;;;;33.72;4.13;;;;;;;43.23;28.10;94797.09;10489269;28;20045;-73
2021/06/23 09:59:18;;;;;;;39.38;4.63;;;;;;;43.07;27.83;94794.75;10489032;28;20479;-73
2021/06/23 10:04:18;;;;;;;24.20;4.03;;;;;;;45.11;26.24;94801.31;10489103;28;20031;-73
2021/06/23 10:09:30;;;;;;;22.23;3.97;;;;;;;46.30;24.15;94787.28;10488675;28;20503;-73
2021/06/23 10:14:33;;;;;;;32.90;5.28;;;;;;;46.68;23.75;94785.91;10488503;28;20059;-73
2021/06/23 10:19:34;;;;;;;28.77;3.85;;;;;;;46.87;22.98;94783.34;10488011;28;20028;-73
2021/06/23 10:24:35;;;;;;;32.40;4.53;;;;;;;47.76;22.84;94786.09;10485665;28;20029;-74
2021/06/23 10:29:38;;;;;;;24.90;4.32;;;;;;;45.32;25.19;94776.47;10488187;28;20399;-74
2021/06/23 10:34:41;;;;;;;16.60;3.28;;;;;;;46.87;22.78;94768.38;10487079;28;20051;-73
2021/06/23 10:39:45;;;;;;;26.57;5.40;;;;;;;46.71;22.65;94779.19;10488094;28;20101;-73
2021/06/23 10:44:53;;;;;;;18.50;4.00;;;;;;;45.45;24.91;94766.78;10487997;28;20354;-73
2021/06/23 10:49:54;;;;;;;32.85;4.32;;;;;;;43.55;26.39;94768.31;10487348;28;20044;-73
2021/06/23 10:55:20;;;;;;;27.65;4.05;;;;;;;44.62;26.33;94763.38;10487914;28;20032;-73
2021/06/23 11:00:21;;;;;;;27.13;4.72;;;;;;;44.84;27.50;94765.69;10487270;28;20044;-73
2021/06/23 11:05:22;;;;;;;35.53;5.50;;;;;;;42.15;29.01;94761.03;10486301;28;20498;-73
2021/06/23 11:10:30;;;;;;;30.13;4.38;;;;;;;39.70;29.19;94774.03;10487493;28;20077;-75
2021/06/23 11:15:36;;;;;;;22.27;4.88;;;;;;;38.51;33.66;94770.78;10487191;28;20028;-73
2021/06/23 11:20:38;;;;;;;26.15;5.00;;;;;;;37.50;33.28;94764.88;10486767;28;20036;-73
2021/06/23 11:25:39;;;;;;;35.63;5.15;;;;;;;37.17;32.97;94765.88;10487129;28;20035;-73
2021/06/23 11:30:42;;;;;;;30.83;7.88;;;;;;;36.46;41.11;94775.06;10487057;28;20747;-73
2021/06/23 11:35:42;;;;;;;36.42;6.43;;;;;;;35.99;35.31;94758.69;10486521;28;20048;-74
2021/06/23 11:40:43;;;;;;;25.43;6.47;;;;;;;35.55;35.38;94764.53;10486806;28;20028;-73
2021/06/23 11:45:47;;;;;;;29.43;5.63;;;;;;;35.30;36.29;94768.66;10493237;28;20506;-73
2021/06/23 11:50:47;;;;;;;38.15;6.22;;;;;;;34.93;37.96;94765.09;10493884;28;20533;-73
2021/06/23 11:55:50;;;;;;;37.25;6.55;;;;;;;34.60;39.85;94778.13;10493939;28;20128;-73
2021/06/23 12:00:50;;;;;;;27.98;6.28;;;;;;;34.36;38.00;94769.81;10493469;28;20033;-73
2021/06/23 12:05:52;;;;;;;28.43;7.57;;;;;;;34.20;41.19;94776.84;10509438;28;20497;-73
2021/06/23 12:10:52;;;;;;;28.77;6.10;;;;;;;33.85;43.94;94779.00;10493570;28;20278;-73
2021/06/23 12:15:52;;;;;;;34.97;7.30;;;;;;;33.44;40.99;94782.06;10493364;28;20038;-73
2021/06/23 12:20:53;;;;;;;29.30;5.43;;;;;;;32.93;40.12;94781.94;10492909;28;20104;-73
2021/06/23 12:25:53;;;;;;;37.60;5.57;;;;;;;33.03;41.93;94772.63;10508522;28;20354;-73
2021/06/23 12:30:54;;;;;;;37.15;8.27;;;;;;;33.02;41.74;94782.22;10492701;28;20090;-73
2021/06/23 12:35:54;;;;;;;30.07;5.77;;;;;;;33.20;44.55;94785.53;10492405;28;20070;-73
2021/06/23 12:40:54;;;;;;;29.03;6.47;;;;;;;33.06;41.99;94785.75;10492332;28;20361;-73
2021/06/23 12:45:55;;;;;;;30.70;5.28;;;;;;;32.89;44.36;94776.41;10492423;28;20048;-73
2021/06/23 12:50:55;;;;;;;30.87;6.17;;;;;;;32.98;46.78;94785.03;10491731;28;20377;-73
2021/06/23 12:55:56;;;;;;;40.50;5.78;;;;;;;33.03;50.81;94787.34;10490736;28;20567;-73
2021/06/23 13:00:56;;;;;;;21.40;5.67;;;;;;;32.87;49.25;94784.38;10491199;28;20028;-78
2021/06/23 13:06:00;;;;;;;32.50;5.35;;;;;;;33.01;48.93;94773.06;10491049;28;20036;-73
2021/06/23 13:11:01;;;;;;;22.27;5.10;;;;;;;32.91;51.57;94779.56;10491474;28;20036;-73
2021/06/23 13:16:03;;;;;;;52.60;7.03;;;;;;;33.07;45.40;94776.16;10491061;28;20537;-73
2021/06/23 13:21:04;;;;;;;25.20;5.60;;;;;;;33.13;41.27;94774.50;10490606;28;20052;-73
2021/06/23 13:26:04;;;;;;;29.55;4.85;;;;;;;33.24;40.31;94773.56;10490797;28;20108;-73
2021/06/23 13:31:05;;;;;;;29.15;5.43;;;;;;;33.32;42.62;94769.47;10488825;28;20028;-73
2021/06/23 13:36:06;;;;;;;32.22;5.88;;;;;;;33.69;42.23;94767.72;10489811;28;20428;-73
2021/06/23 13:41:06;;;;;;;26.52;4.93;;;;;;;33.69;39.26;94759.38;10489335;28;20507;-72
2021/06/23 13:46:08;;;;;;;23.10;4.10;;;;;;;33.30;39.98;94760.78;10489577;28;20171;-73
2021/06/23 13:51:08;;;;;;;22.25;4.45;;;;;;;32.91;40.09;94764.88;10488941;28;20043;-73
2021/06/23 13:56:09;;;;;;;25.25;6.03;;;;;;;32.87;42.19;94762.13;10489107;28;20381;-73
2021/06/23 14:01:09;;;;;;;21.70;4.07;;;;;;;32.70;39.99;94756.34;10489152;28;20783;-73
2021/06/23 14:06:09;;;;;;;23.10;4.87;;;;;;;32.46;42.92;94761.00;10487922;28;20472;-73
2021/06/23 14:11:10;;;;;;;36.90;4.60;;;;;;;32.35;41.04;94765.91;10488193;28;20032;-73
2021/06/23 14:16:10;;;;;;;36.97;4.63;;;;;;;32.31;44.81;94754.03;10488408;28;20047;-73
2021/06/23 14:21:11;;;;;;;23.70;4.38;;;;;;;32.40;42.71;94759.09;10488001;28;20089;-73
2021/06/23 14:26:11;;;;;;;17.40;3.70;;;;;;;32.26;41.57;94760.81;10487688;28;20457;-73
2021/06/23 14:31:11;;;;;;;22.77;4.33;;;;;;;32.06;43.47;94757.81;10488143;28;20290;-73
2021/06/23 14:36:12;;;;;;;24.23;5.20;;;;;;;31.92;43.67;94766.31;10486759;28;20185;-72
2021/06/23 14:41:12;;;;;;;26.23;4.97;;;;;;;31.69;40.19;94764.88;10486998;28;20036;-73
2021/06/23 14:46:13;;;;;;;17.70;4.23;;;;;;;31.51;40.87;94765.03;10486956;28;20362;-73
2021/06/23 14:51:13;;;;;;;25.60;4.60;;;;;;;31.44;40.19;94765.88;10485751;28;20041;-72
2021/06/23 14:56:13;;;;;;;28.33;4.50;;;;;;;31.30;42.47;94754.84;10483881;28;20317;-73
2021/06/23 15:01:14;;;;;;;19.33;4.25;;;;;;;31.29;41.58;94747.72;10484998;28;20025;-73
2021/06/23 15:06:14;;;;;;;30.15;6.43;;;;;;;31.24;41.67;94751.69;10485101;28;20025;-74
2021/06/23 15:11:15;;;;;;;21.67;5.70;;;;;;;31.13;42.70;94751.00;10486028;28;20804;-74
2021/06/23 15:16:18;;;;;;;33.50;5.57;;;;;;;31.09;41.52;94750.22;10485395;28;20119;-74
2021/06/23 15:21:18;;;;;;;27.48;5.68;;;;;;;30.99;43.56;94740.72;10493169;28;20083;-73
2021/06/23 15:26:18;;;;;;;25.20;5.73;;;;;;;30.87;43.56;94744.78;10493456;28;20029;-74
2021/06/23 15:31:19;;;;;;;19.60;4.28;;;;;;;30.77;41.49;94746.41;10492902;28;20281;-74
2021/06/23 15:36:20;;;;;;;21.83;4.47;;;;;;;30.73;43.45;94761.47;10492987;28;20106;-74
2021/06/23 15:41:23;;;;;;;26.10;4.15;;;;;;;30.61;44.27;94768.28;10493180;28;20028;-74
2021/06/23 15:46:23;;;;;;;21.75;5.32;;;;;;;30.55;44.85;94773.44;10493166;28;20056;-74
2021/06/23 15:51:24;;;;;;;30.63;5.10;;;;;;;30.42;43.47;94783.34;10492903;28;20171;-74
2021/06/23 15:56:24;;;;;;;17.97;4.77;;;;;;;30.36;45.29;94790.53;10492430;28;20032;-74
2021/06/23 16:01:25;;;;;;;16.23;3.20;;;;;;;30.27;42.66;94790.94;10492429;28;20032;-73
2021/06/23 16:06:25;;;;;;;16.58;4.65;;;;;;;30.08;47.69;94804.03;10493735;28;20352;-73
2021/06/23 16:11:25;;;;;;;31.33;5.13;;;;;;;29.54;47.35;94812.34;10490899;28;20024;-73
2021/06/23 16:16:26;;;;;;;39.93;6.27;;;;;;;29.24;52.77;94821.00;10491411;28;20348;-73
2021/06/23 16:21:27;;;;;;;27.45;4.50;;;;;;;29.21;51.45;94824.50;10491853;28;20336;-73
2021/06/23 16:26:27;;;;;;;25.13;6.25;;;;;;;29.24;55.88;94821.78;10491403;28;20021;-74
2021/06/23 16:31:28;;;;;;;31.37;6.10;;;;;;;29.28;56.28;94830.09;10489654;28;20460;-73
2021/06/23 16:36:28;;;;;;;35.67;5.37;;;;;;;29.33;52.87;94832.47;10490937;28;20047;-73
2021/06/23 16:41:29;;;;;;;29.53;6.13;;;;;;;29.35;54.31;94830.09;10491011;28;20036;-73
2021/06/23 16:46:29;;;;;;;29.25;5.05;;;;;;;29.37;53.73;94832.47;10490705;28;20028;-74
2021/06/23 16:51:30;;;;;;;28.87;4.73;;;;;;;29.40;56.80;94834.44;10490658;28;20371;-74
2021/06/23 16:56:30;;;;;;;23.10;5.13;;;;;;;29.33;57.53;94846.31;10490406;28;20037;-73
2021/06/23 17:01:31;;;;;;;30.67;5.15;;;;;;;29.31;60.12;94852.22;10490185;28;20518;-74
2021/06/23 17:06:32;;;;;;;23.08;5.60;;;;;;;29.27;61.56;94847.88;10489846;28;20020;-74
2021/06/23 17:11:32;;;;;;;30.75;5.13;;;;;;;29.21;56.03;94854.97;10489734;28;20020;-74
2021/06/23 17:16:33;;;;;;;32.83;5.50;;;;;;;29.15;58.06;94860.88;10488461;28;20028;-74
2021/06/23 17:21:35;;;;;;;27.23;6.53;;;;;;;29.13;57.47;94851.38;10494621;28;20104;-73
2021/06/23 17:26:38;;;;;;;25.63;4.85;;;;;;;29.10;58.11;94836.31;10488600;28;20032;-74
2021/06/23 17:31:39;;;;;;;42.40;6.18;;;;;;;28.97;59.86;94846.97;10487884;28;20039;-74
2021/06/23 17:36:40;;;;;;;30.17;5.25;;;;;;;28.88;60.13;94846.53;10488363;28;20133;-73
2021/06/23 17:41:40;;;;;;;28.25;4.55;;;;;;;28.79;62.90;94859.94;10487056;28;20036;-74
2021/06/23 17:46:41;;;;;;;27.02;7.97;;;;;;;28.72;66.51;94855.16;10488371;28;20028;-73
2021/06/23 17:51:41;;;;;;;21.97;5.83;;;;;;;28.58;70.35;94857.81;10488386;28;20467;-74
2021/06/23 17:56:43;;;;;;;26.17;5.20;;;;;;;28.39;76.34;94856.91;10488236;28;20024;-74
2021/06/23 18:01:43;;;;;;;29.60;7.03;;;;;;;28.29;81.33;94861.19;10487906;28;20283;-74
2021/06/23 18:06:44;;;;;;;38.87;6.27;;;;;;;28.17;83.65;94871.78;10487754;28;20024;-74
2021/06/23 18:11:44;;;;;;;25.83;6.83;;;;;;;28.07;89.05;94873.28;10486231;28;20020;-74
2021/06/23 18:16:49;;;;;;;37.28;7.93;;;;;;;27.91;91.59;94893.66;10485609;28;20090;-74
2021/06/23 18:21:49;;;;;;;28.20;7.38;;;;;;;27.66;93.51;94893.41;10487386;28;20490;-73
2021/06/23 18:26:49;;;;;;;31.13;7.28;;;;;;;27.43;95.90;94897.16;10487480;28;20027;-74
2021/06/23 18:31:50;;;;;;;26.85;7.25;;;;;;;27.19;96.96;94912.19;10486556;28;20054;-74
2021/06/23 18:36:50;;;;;;;28.88;7.43;;;;;;;27.08;100.00;94922.31;10486637;28;20044;-74
2021/06/23 18:41:51;;;;;;;30.38;9.05;;;;;;;26.99;100.00;94932.84;10486577;28;20930;-74
2021/06/23 18:46:51;;;;;;;33.53;7.90;;;;;;;26.98;100.00;94936.78;10486455;28;20137;-73
2021/06/23 18:51:52;;;;;;;32.60;6.90;;;;;;;26.96;100.00;94945.44;10485438;28;20107;-74
2021/06/23 18:56:52;;;;;;;33.13;7.27;;;;;;;26.83;100.00;94963.38;10485502;28;20396;-74
2021/06/23 19:01:53;;;;;;;32.22;7.05;;;;;;;26.78;100.00;94959.75;10484898;28;20052;-74
2021/06/23 19:06:54;;;;;;;50.35;8.55;;;;;;;26.76;100.00;94961.28;10484499;28;20032;-74
2021/06/23 19:11:54;;;;;;;43.83;11.52;;;;;;;26.60;100.00;94953.94;10485834;28;20033;-74
2021/06/23 19:16:55;;;;;;;39.53;12.32;;;;;;;26.40;100.00;94960.72;10485415;28;20032;-74
2021/06/23 19:21:55;;;;;;;41.10;11.03;;;;;;;26.25;100.00;94973.50;10485756;28;20138;-74
2021/06/23 19:26:55;;;;;;;51.30;11.17;;;;;;;26.12;100.00;94981.13;10485727;28;20623;-74
2021/06/23 19:31:56;;;;;;;38.40;11.13;;;;;;;25.91;100.00;94973.25;10484236;28;20024;-74
2021/06/23 19:36:56;;;;;;;40.75;10.40;;;;;;;25.82;100.00;94959.75;10485103;28;20041;-74
2021/06/23 19:41:57;;;;;;;46.13;11.32;;;;;;;25.83;100.00;94968.78;10484056;28;20460;-74
2021/06/23 19:46:57;;;;;;;36.55;12.38;;;;;;;25.86;100.00;94974.38;10485189;28;20913;-74
2021/06/23 19:51:58;;;;;;;42.30;12.15;;;;;;;25.80;100.00;94970.34;10484804;28;20418;-74
2021/06/23 19:56:58;;;;;;;35.67;11.63;;;;;;;25.74;100.00;94980.81;10483194;28;20373;-74
2021/06/23 20:01:59;;;;;;;46.70;11.67;;;;;;;25.53;100.00;94978.47;10484704;28;20107;-74
2021/06/23 20:07:00;;;;;;;46.38;10.68;;;;;;;25.34;100.00;94976.53;10490936;28;20021;-73
2021/06/23 20:12:01;;;;;;;48.75;10.70;;;;;;;25.20;100.00;94979.78;10490271;28;20732;-73
2021/06/23 20:17:02;;;;;;;47.88;10.32;;;;;;;25.11;100.00;94981.91;10492273;28;20035;-73
2021/06/23 20:22:02;;;;;;;34.88;10.07;;;;;;;25.11;100.00;94978.38;10491860;28;20111;-73
2021/06/23 20:27:03;;;;;;;39.03;9.70;;;;;;;25.05;100.00;94988.88;10491611;28;20107;-73
2021/06/23 20:32:04;;;;;;;28.35;9.05;;;;;;;25.10;100.00;94987.78;10490551;28;20456;-73
2021/06/23 20:37:04;;;;;;;30.40;8.40;;;;;;;25.05;100.00;94997.13;10490593;28;20033;-72
2021/06/23 20:42:05;;;;;;;28.27;7.87;;;;;;;24.99;100.00;94988.38;10490737;28;20028;-72
2021/06/23 20:47:05;;;;;;;22.02;7.10;;;;;;;24.86;100.00;94989.63;10490402;28;20055;-73
2021/06/23 20:52:06;;;;;;;36.95;9.05;;;;;;;24.80;100.00;94997.38;10489620;28;20051;-73
2021/06/23 20:57:07;;;;;;;31.35;6.95;;;;;;;24.61;100.00;95000.84;10489336;28;20029;-73
2021/06/23 21:02:07;;;;;;;21.65;7.00;;;;;;;24.58;100.00;94990.53;10489673;28;20036;-73
2021/06/23 21:07:09;;;;;;;27.02;7.00;;;;;;;24.51;100.00;94979.41;10489104;28;20021;-73
2021/06/23 21:12:10;;;;;;;34.33;8.00;;;;;;;24.53;100.00;94982.56;10488933;28;20534;-73
2021/06/23 21:17:14;;;;;;;30.02;8.55;;;;;;;24.56;100.00;94993.66;10488295;28;20463;-73
2021/06/23 21:22:20;;;;;;;40.17;9.65;;;;;;;24.51;100.00;94984.88;10488682;28;20036;-73
2021/06/23 21:27:22;;;;;;;38.92;8.55;;;;;;;24.36;100.00;94990.06;10489133;28;20048;-73
2021/06/23 21:32:27;;;;;;;28.83;7.65;;;;;;;24.25;100.00;94986.22;10487940;28;20048;-73
2021/06/23 21:37:36;;;;;;;29.30;8.38;;;;;;;24.15;100.00;94978.53;10488121;28;20033;-73
2021/06/23 21:42:37;;;;;;;31.10;7.38;;;;;;;24.08;100.00;94989.34;10501684;28;20111;-73
2021/06/23 21:47:37;;;;;;;25.73;7.88;;;;;;;23.73;100.00;94974.31;10486872;28;20090;-73
2021/06/23 21:52:38;;;;;;;35.88;8.68;;;;;;;23.69;100.00;94973.41;10487806;28;20094;-73
2021/06/23 21:57:39;;;;;;;32.30;7.72;;;;;;;23.49;100.00;94969.75;10487460;28;20028;-73
2021/06/23 22:02:41;;;;;;;28.20;7.22;;;;;;;23.46;100.00;94971.25;10487785;28;20068;-73
2021/06/23 22:07:47;;;;;;;31.38;8.82;;;;;;;23.30;100.00;94962.94;10487408;28;20487;-73
2021/06/23 22:12:53;;;;;;;32.35;7.70;;;;;;;23.39;100.00;94973.78;10487293;28;20539;-73
2021/06/23 22:17:55;;;;;;;33.55;7.95;;;;;;;23.47;100.00;94978.34;10487092;28;20701;-73
2021/06/23 22:22:58;;;;;;;28.13;8.27;;;;;;;23.50;100.00;94977.63;10487152;28;20068;-73
2021/06/23 22:28:01;;;;;;;30.88;9.65;;;;;;;23.42;100.00;94970.34;10487277;28;20028;-73
2021/06/23 22:33:04;;;;;;;21.42;7.35;;;;;;;23.43;100.00;94971.13;10485395;28;20056;-73
2021/06/23 22:38:04;;;;;;;30.75;8.10;;;;;;;23.20;100.00;94968.94;10487029;28;20093;-73
2021/06/23 22:48:12;;;;;;;23.20;7.65;;;;;;;23.09;100.00;94987.00;10486921;28;20480;-73
2021/06/23 22:53:16;;;;;;;30.38;7.03;;;;;;;23.04;100.00;94977.88;10500271;28;20052;-73
2021/06/23 22:58:17;;;;;;;28.80;7.20;;;;;;;23.06;100.00;94987.72;10485678;28;20441;-73
2021/06/23 23:03:19;;;;;;;20.67;7.63;;;;;;;23.00;100.00;94985.19;10484881;28;20033;-73
2021/06/23 23:08:19;;;;;;;35.05;8.75;;;;;;;22.87;100.00;94984.44;10485100;28;20807;-73
2021/06/23 23:13:20;;;;;;;34.03;9.97;;;;;;;22.79;100.00;94987.31;10484317;28;20115;-73
2021/06/23 23:18:20;;;;;;;26.80;7.97;;;;;;;22.78;100.00;94981.03;10485401;28;20035;-73
2021/06/23 23:23:21;;;;;;;37.08;9.15;;;;;;;22.52;100.00;94982.22;10484944;28;20034;-73
2021/06/23 23:28:21;;;;;;;39.50;10.87;;;;;;;22.44;100.00;94990.53;10485150;28;20028;-73